sensor_id;sensor_type;location;lat;lon;timestamp;pressure;altitude;pressure_sealevel;temperature
71630;BMP280;59479;51.902;8.212;2024-02-28T00:01:59;101335.88;;;4.57
71630;BMP280;59479;51.902;8.212;2024-02-28T00:04:25;101334.34;;;4.60
71630;BMP280;59479;51.902;8.212;2024-02-28T00:06:50;101336.72;;;4.57
71630;BMP280;59479;51.902;8.212;2024-02-28T00:09:16;101328.22;;;4.51
71630;BMP280;59479;51.902;8.212;2024-02-28T00:11:45;101327.28;;;4.49
71630;BMP280;59479;51.902;8.212;2024-02-28T00:14:11;101330.72;;;4.51
71630;BMP280;59479;51.902;8.212;2024-02-28T00:16:40;101324.72;;;4.46
71630;BMP280;59479;51.902;8.212;2024-02-28T00:19:06;101324.72;;;4.46
71630;BMP280;59479;51.902;8.212;2024-02-28T00:21:32;101340.44;;;4.45
71630;BMP280;59479;51.902;8.212;2024-02-28T00:23:57;101338.59;;;4.40
71630;BMP280;59479;51.902;8.212;2024-02-28T00:26:22;101337.72;;;4.39
71630;BMP280;59479;51.902;8.212;2024-02-28T00:28:48;101336.00;;;4.37
71630;BMP280;59479;51.902;8.212;2024-02-28T00:31:13;101334.09;;;4.30
71630;BMP280;59479;51.902;8.212;2024-02-28T00:33:38;101339.00;;;4.28
71630;BMP280;59479;51.902;8.212;2024-02-28T00:36:04;101334.81;;;4.27
71630;BMP280;59479;51.902;8.212;2024-02-28T00:38:29;101347.25;;;4.27
71630;BMP280;59479;51.902;8.212;2024-02-28T00:40:54;101356.31;;;4.25
71630;BMP280;59479;51.902;8.212;2024-02-28T00:43:20;101362.09;;;4.24
71630;BMP280;59479;51.902;8.212;2024-02-28T00:45:45;101356.31;;;4.25
71630;BMP280;59479;51.902;8.212;2024-02-28T00:48:10;101364.59;;;4.26
71630;BMP280;59479;51.902;8.212;2024-02-28T00:50:36;101362.94;;;4.25
71630;BMP280;59479;51.902;8.212;2024-02-28T00:53:01;101361.28;;;4.25
71630;BMP280;59479;51.902;8.212;2024-02-28T00:55:28;101362.09;;;4.24
71630;BMP280;59479;51.902;8.212;2024-02-28T00:57:53;101358.00;;;4.26
71630;BMP280;59479;51.902;8.212;2024-02-28T01:00:19;101361.28;;;4.25
71630;BMP280;59479;51.902;8.212;2024-02-28T01:02:44;101367.00;;;4.23
71630;BMP280;59479;51.902;8.212;2024-02-28T01:05:10;101360.06;;;4.15
71630;BMP280;59479;51.902;8.212;2024-02-28T01:07:35;101365.75;;;4.12
71630;BMP280;59479;51.902;8.212;2024-02-28T01:10:01;101370.84;;;4.15
71630;BMP280;59479;51.902;8.212;2024-02-28T01:12:27;101365.06;;;4.16
71630;BMP280;59479;51.902;8.212;2024-02-28T01:14:52;101356.88;;;4.18
71630;BMP280;59479;51.902;8.212;2024-02-28T01:17:17;101357.66;;;4.17
71630;BMP280;59479;51.902;8.212;2024-02-28T01:19:43;101359.19;;;4.14
71630;BMP280;59479;51.902;8.212;2024-02-28T01:22:08;101355.88;;;4.14
71630;BMP280;59479;51.902;8.212;2024-02-28T01:24:34;101353.25;;;4.11
71630;BMP280;59479;51.902;8.212;2024-02-28T01:26:59;101348.47;;;4.15
71630;BMP280;59479;51.902;8.212;2024-02-28T01:29:25;101347.63;;;4.15
71630;BMP280;59479;51.902;8.212;2024-02-28T01:31:50;101344.19;;;4.13
71630;BMP280;59479;51.902;8.212;2024-02-28T01:34:16;101345.78;;;4.11
71630;BMP280;59479;51.902;8.212;2024-02-28T01:36:41;101337.44;;;4.09
71630;BMP280;59479;51.902;8.212;2024-02-28T01:39:06;101344.94;;;4.10
71630;BMP280;59479;51.902;8.212;2024-02-28T01:41:32;101350.72;;;4.09
71630;BMP280;59479;51.902;8.212;2024-02-28T01:43:57;101347.84;;;3.99
71630;BMP280;59479;51.902;8.212;2024-02-28T01:46:25;101351.97;;;3.98
71630;BMP280;59479;51.902;8.212;2024-02-28T01:48:51;101358.56;;;3.98
71630;BMP280;59479;51.902;8.212;2024-02-28T01:51:17;101361.22;;;4.02
71630;BMP280;59479;51.902;8.212;2024-02-28T01:53:44;101360.28;;;3.99
71630;BMP280;59479;51.902;8.212;2024-02-28T01:56:10;101349.41;;;3.97
71630;BMP280;59479;51.902;8.212;2024-02-28T01:58:36;101338.66;;;3.98
71630;BMP280;59479;51.902;8.212;2024-02-28T02:01:02;101326.06;;;3.93
71630;BMP280;59479;51.902;8.212;2024-02-28T02:03:28;101326.91;;;3.94
71630;BMP280;59479;51.902;8.212;2024-02-28T02:05:54;101324.44;;;3.94
71630;BMP280;59479;51.902;8.212;2024-02-28T02:08:19;101336.91;;;3.95
71630;BMP280;59479;51.902;8.212;2024-02-28T02:10:44;101348.59;;;3.98
71630;BMP280;59479;51.902;8.212;2024-02-28T02:13:10;101346.31;;;4.02
71630;BMP280;59479;51.902;8.212;2024-02-28T02:15:35;101352.25;;;4.06
71630;BMP280;59479;51.902;8.212;2024-02-28T02:18:00;101350.50;;;4.03
71630;BMP280;59479;51.902;8.212;2024-02-28T02:20:30;101344.56;;;4.00
71630;BMP280;59479;51.902;8.212;2024-02-28T02:22:55;101336.28;;;4.01
71630;BMP280;59479;51.902;8.212;2024-02-28T02:25:21;101352.13;;;4.03
71630;BMP280;59479;51.902;8.212;2024-02-28T02:27:46;101338.78;;;4.01
71630;BMP280;59479;51.902;8.212;2024-02-28T02:30:12;101352.25;;;4.06
71630;BMP280;59479;51.902;8.212;2024-02-28T02:32:37;101348.00;;;4.03
71630;BMP280;59479;51.902;8.212;2024-02-28T02:35:03;101351.41;;;4.05
71630;BMP280;59479;51.902;8.212;2024-02-28T02:37:28;101339.47;;;3.97
71630;BMP280;59479;51.902;8.212;2024-02-28T02:39:53;101340.44;;;4.00
71630;BMP280;59479;51.902;8.212;2024-02-28T02:42:19;101340.50;;;4.02
71630;BMP280;59479;51.902;8.212;2024-02-28T02:44:44;101342.03;;;3.98
71630;BMP280;59479;51.902;8.212;2024-02-28T02:47:10;101346.94;;;3.97
71630;BMP280;59479;51.902;8.212;2024-02-28T02:49:35;101357.16;;;4.04
71630;BMP280;59479;51.902;8.212;2024-02-28T02:52:00;101362.75;;;3.99
71630;BMP280;59479;51.902;8.212;2024-02-28T02:54:26;101361.84;;;3.97
71630;BMP280;59479;51.902;8.212;2024-02-28T02:56:51;101360.84;;;3.92
71630;BMP280;59479;51.902;8.212;2024-02-28T02:59:16;101359.88;;;3.88
71630;BMP280;59479;51.902;8.212;2024-02-28T03:01:42;101364.91;;;3.90
71630;BMP280;59479;51.902;8.212;2024-02-28T03:04:07;101359.81;;;3.87
71630;BMP280;59479;51.902;8.212;2024-02-28T03:06:32;101361.53;;;3.88
71630;BMP280;59479;51.902;8.212;2024-02-28T03:08:58;101364.16;;;3.92
71630;BMP280;59479;51.902;8.212;2024-02-28T03:11:23;101364.91;;;3.90
71630;BMP280;59479;51.902;8.212;2024-02-28T03:13:48;101369.00;;;3.89
71630;BMP280;59479;51.902;8.212;2024-02-28T03:16:14;101367.47;;;3.91
71630;BMP280;59479;51.902;8.212;2024-02-28T03:18:39;101372.50;;;3.93
71630;BMP280;59479;51.902;8.212;2024-02-28T03:21:04;101369.81;;;3.88
71630;BMP280;59479;51.902;8.212;2024-02-28T03:23:30;101364.09;;;3.91
71630;BMP280;59479;51.902;8.212;2024-02-28T03:25:55;101370.00;;;3.93
71630;BMP280;59479;51.902;8.212;2024-02-28T03:28:20;101362.69;;;3.97
71630;BMP280;59479;51.902;8.212;2024-02-28T03:30:46;101373.47;;;3.98
71630;BMP280;59479;51.902;8.212;2024-02-28T03:33:11;101365.88;;;3.93
71630;BMP280;59479;51.902;8.212;2024-02-28T03:35:36;101369.06;;;3.91
71630;BMP280;59479;51.902;8.212;2024-02-28T03:38:02;101379.13;;;3.94
71630;BMP280;59479;51.902;8.212;2024-02-28T03:40:27;101378.31;;;3.93
71630;BMP280;59479;51.902;8.212;2024-02-28T03:42:52;101387.28;;;3.90
71630;BMP280;59479;51.902;8.212;2024-02-28T03:45:19;101383.78;;;3.85
71630;BMP280;59479;51.902;8.212;2024-02-28T03:47:44;101386.19;;;3.83
71630;BMP280;59479;51.902;8.212;2024-02-28T03:50:10;101384.63;;;3.85
71630;BMP280;59479;51.902;8.212;2024-02-28T03:52:35;101381.50;;;3.91
71630;BMP280;59479;51.902;8.212;2024-02-28T03:55:00;101393.03;;;3.89
71630;BMP280;59479;51.902;8.212;2024-02-28T03:57:26;101394.50;;;3.84
71630;BMP280;59479;51.902;8.212;2024-02-28T03:59:51;101397.66;;;3.80
71630;BMP280;59479;51.902;8.212;2024-02-28T04:02:16;101400.94;;;3.79
71630;BMP280;59479;51.902;8.212;2024-02-28T04:04:42;101403.41;;;3.79
71630;BMP280;59479;51.902;8.212;2024-02-28T04:07:08;101399.91;;;3.74
71630;BMP280;59479;51.902;8.212;2024-02-28T04:09:33;101403.25;;;3.75
71630;BMP280;59479;51.902;8.212;2024-02-28T04:11:58;101408.19;;;3.73
71630;BMP280;59479;51.902;8.212;2024-02-28T04:14:23;101404.75;;;3.71
71630;BMP280;59479;51.902;8.212;2024-02-28T04:16:49;101413.84;;;3.71
71630;BMP280;59479;51.902;8.212;2024-02-28T04:19:15;101413.56;;;3.63
71630;BMP280;59479;51.902;8.212;2024-02-28T04:21:41;101414.41;;;3.64
71630;BMP280;59479;51.902;8.212;2024-02-28T04:24:07;101418.28;;;3.57
71630;BMP280;59479;51.902;8.212;2024-02-28T04:26:32;101420.22;;;3.64
71630;BMP280;59479;51.902;8.212;2024-02-28T04:28:58;101434.03;;;3.58
71630;BMP280;59479;51.902;8.212;2024-02-28T04:31:24;101434.91;;;3.58
71630;BMP280;59479;51.902;8.212;2024-02-28T04:33:49;101438.44;;;3.63
71630;BMP280;59479;51.902;8.212;2024-02-28T04:36:14;101445.56;;;3.56
71630;BMP280;59479;51.902;8.212;2024-02-28T04:38:41;101427.03;;;3.48
71630;BMP280;59479;51.902;8.212;2024-02-28T04:41:07;101439.25;;;3.43
71630;BMP280;59479;51.902;8.212;2024-02-28T04:43:32;101440.84;;;3.41
71630;BMP280;59479;51.902;8.212;2024-02-28T04:45:57;101446.94;;;3.49
71630;BMP280;59479;51.902;8.212;2024-02-28T04:48:23;101446.94;;;3.49
71630;BMP280;59479;51.902;8.212;2024-02-28T04:50:48;101449.81;;;3.58
71630;BMP280;59479;51.902;8.212;2024-02-28T04:53:13;101446.44;;;3.56
71630;BMP280;59479;51.902;8.212;2024-02-28T04:55:39;101451.28;;;3.53
71630;BMP280;59479;51.902;8.212;2024-02-28T04:58:04;101450.03;;;3.64
71630;BMP280;59479;51.902;8.212;2024-02-28T05:00:30;101449.09;;;3.61
71630;BMP280;59479;51.902;8.212;2024-02-28T05:02:55;101459.09;;;3.62
71630;BMP280;59479;51.902;8.212;2024-02-28T05:05:20;101458.06;;;3.57
71630;BMP280;59479;51.902;8.212;2024-02-28T05:07:46;101463.88;;;3.58
71630;BMP280;59479;51.902;8.212;2024-02-28T05:10:11;101471.31;;;3.58
71630;BMP280;59479;51.902;8.212;2024-02-28T05:12:36;101469.72;;;3.58
71630;BMP280;59479;51.902;8.212;2024-02-28T05:15:02;101475.25;;;3.53
71630;BMP280;59479;51.902;8.212;2024-02-28T05:17:27;101469.44;;;3.52
71630;BMP280;59479;51.902;8.212;2024-02-28T05:19:52;101472.75;;;3.51
71630;BMP280;59479;51.902;8.212;2024-02-28T05:22:18;101471.75;;;3.48
71630;BMP280;59479;51.902;8.212;2024-02-28T05:24:46;101480.97;;;3.50
71630;BMP280;59479;51.902;8.212;2024-02-28T05:27:11;101499.19;;;3.51
71630;BMP280;59479;51.902;8.212;2024-02-28T05:29:36;101488.41;;;3.50
71630;BMP280;59479;51.902;8.212;2024-02-28T05:32:02;101503.34;;;3.50
71630;BMP280;59479;51.902;8.212;2024-02-28T05:34:28;101489.31;;;3.52
71630;BMP280;59479;51.902;8.212;2024-02-28T05:36:53;101489.47;;;3.55
71630;BMP280;59479;51.902;8.212;2024-02-28T05:39:19;101494.56;;;3.58
71630;BMP280;59479;51.902;8.212;2024-02-28T05:41:44;101497.13;;;3.60
71630;BMP280;59479;51.902;8.212;2024-02-28T05:44:09;101494.69;;;3.61
71630;BMP280;59479;51.902;8.212;2024-02-28T05:46:35;101501.22;;;3.59
71630;BMP280;59479;51.902;8.212;2024-02-28T05:49:03;101498.03;;;3.62
71630;BMP280;59479;51.902;8.212;2024-02-28T05:51:28;101496.97;;;3.57
71630;BMP280;59479;51.902;8.212;2024-02-28T05:53:53;101516.06;;;3.58
71630;BMP280;59479;51.902;8.212;2024-02-28T05:56:19;101502.25;;;3.64
71630;BMP280;59479;51.902;8.212;2024-02-28T05:58:45;101516.25;;;3.62
71630;BMP280;59479;51.902;8.212;2024-02-28T06:01:11;101512.88;;;3.60
71630;BMP280;59479;51.902;8.212;2024-02-28T06:03:37;101507.91;;;3.60
71630;BMP280;59479;51.902;8.212;2024-02-28T06:06:03;101528.56;;;3.59
71630;BMP280;59479;51.902;8.212;2024-02-28T06:08:37;101535.38;;;3.63
71630;BMP280;59479;51.902;8.212;2024-02-28T06:11:02;101530.41;;;3.63
71630;BMP280;59479;51.902;8.212;2024-02-28T06:13:28;101527.91;;;3.63
71630;BMP280;59479;51.902;8.212;2024-02-28T06:15:54;101528.97;;;3.68
71630;BMP280;59479;51.902;8.212;2024-02-28T06:18:19;101526.28;;;3.64
71630;BMP280;59479;51.902;8.212;2024-02-28T06:20:48;101527.78;;;3.60
71630;BMP280;59479;51.902;8.212;2024-02-28T06:23:13;101536.50;;;3.71
71630;BMP280;59479;51.902;8.212;2024-02-28T06:25:38;101544.09;;;3.74
71630;BMP280;59479;51.902;8.212;2024-02-28T06:28:04;101542.69;;;3.60
71630;BMP280;59479;51.902;8.212;2024-02-28T06:30:32;101541.97;;;3.63
71630;BMP280;59479;51.902;8.212;2024-02-28T06:33:00;101546.69;;;3.57
71630;BMP280;59479;51.902;8.212;2024-02-28T06:35:26;101547.53;;;3.57
71630;BMP280;59479;51.902;8.212;2024-02-28T06:37:52;101555.78;;;3.56
71630;BMP280;59479;51.902;8.212;2024-02-28T06:40:17;101560.56;;;3.52
71630;BMP280;59479;51.902;8.212;2024-02-28T06:42:42;101556.44;;;3.52
71630;BMP280;59479;51.902;8.212;2024-02-28T06:45:08;101552.50;;;3.57
71630;BMP280;59479;51.902;8.212;2024-02-28T06:47:34;101544.97;;;3.56
71630;BMP280;59479;51.902;8.212;2024-02-28T06:49:59;101548.13;;;3.52
71630;BMP280;59479;51.902;8.212;2024-02-28T06:52:25;101539.88;;;3.53
71630;BMP280;59479;51.902;8.212;2024-02-28T06:54:50;101542.69;;;3.60
71630;BMP280;59479;51.902;8.212;2024-02-28T06:57:16;101543.41;;;3.58
71630;BMP280;59479;51.902;8.212;2024-02-28T06:59:42;101546.75;;;3.58
71630;BMP280;59479;51.902;8.212;2024-02-28T07:02:07;101547.06;;;3.66
71630;BMP280;59479;51.902;8.212;2024-02-28T07:04:32;101547.53;;;3.57
71630;BMP280;59479;51.902;8.212;2024-02-28T07:06:57;101550.34;;;3.65
71630;BMP280;59479;51.902;8.212;2024-02-28T07:09:23;101560.59;;;3.72
71630;BMP280;59479;51.902;8.212;2024-02-28T07:11:51;101566.53;;;3.75
71630;BMP280;59479;51.902;8.212;2024-02-28T07:14:16;101560.75;;;3.75
71630;BMP280;59479;51.902;8.212;2024-02-28T07:16:41;101555.09;;;3.79
71630;BMP280;59479;51.902;8.212;2024-02-28T07:19:07;101556.81;;;3.80
71630;BMP280;59479;51.902;8.212;2024-02-28T07:21:32;101559.34;;;3.81
71630;BMP280;59479;51.902;8.212;2024-02-28T07:23:58;101563.66;;;3.85
71630;BMP280;59479;51.902;8.212;2024-02-28T07:26:23;101568.81;;;3.90
71630;BMP280;59479;51.902;8.212;2024-02-28T07:28:49;101557.31;;;3.92
71630;BMP280;59479;51.902;8.212;2024-02-28T07:31:18;101555.59;;;3.91
71630;BMP280;59479;51.902;8.212;2024-02-28T07:33:44;101560.75;;;3.95
71630;BMP280;59479;51.902;8.212;2024-02-28T07:36:09;101565.72;;;3.95
71630;BMP280;59479;51.902;8.212;2024-02-28T07:38:35;101565.38;;;4.07
71630;BMP280;59479;51.902;8.212;2024-02-28T07:41:00;101564.56;;;4.08
71630;BMP280;59479;51.902;8.212;2024-02-28T07:43:26;101569.38;;;4.03
71630;BMP280;59479;51.902;8.212;2024-02-28T07:45:51;101577.81;;;4.07
71630;BMP280;59479;51.902;8.212;2024-02-28T07:48:16;101580.53;;;4.13
71630;BMP280;59479;51.902;8.212;2024-02-28T07:50:44;101584.59;;;4.11
71630;BMP280;59479;51.902;8.212;2024-02-28T07:53:09;101589.03;;;4.17
71630;BMP280;59479;51.902;8.212;2024-02-28T07:55:35;101582.50;;;4.19
71630;BMP280;59479;51.902;8.212;2024-02-28T07:58:00;101581.84;;;4.23
71630;BMP280;59479;51.902;8.212;2024-02-28T08:00:26;101589.44;;;4.26
71630;BMP280;59479;51.902;8.212;2024-02-28T08:02:51;101579.41;;;4.25
71630;BMP280;59479;51.902;8.212;2024-02-28T08:05:16;101583.06;;;4.33
71630;BMP280;59479;51.902;8.212;2024-02-28T08:07:43;101580.44;;;4.30
71630;BMP280;59479;51.902;8.212;2024-02-28T08:10:08;101589.00;;;4.36
71630;BMP280;59479;51.902;8.212;2024-02-28T08:12:35;101579.81;;;4.35
71630;BMP280;59479;51.902;8.212;2024-02-28T08:15:01;101591.56;;;4.38
71630;BMP280;59479;51.902;8.212;2024-02-28T08:17:26;101584.19;;;4.41
71630;BMP280;59479;51.902;8.212;2024-02-28T08:19:51;101602.47;;;4.41
71630;BMP280;59479;51.902;8.212;2024-02-28T08:22:17;101602.56;;;4.44
71630;BMP280;59479;51.902;8.212;2024-02-28T08:24:44;101601.72;;;4.44
71630;BMP280;59479;51.902;8.212;2024-02-28T08:27:12;101606.66;;;4.42
71630;BMP280;59479;51.902;8.212;2024-02-28T08:29:43;101606.66;;;4.42
71630;BMP280;59479;51.902;8.212;2024-02-28T08:32:14;101616.59;;;4.42
71630;BMP280;59479;51.902;8.212;2024-02-28T08:38:07;101614.25;;;4.45
71630;BMP280;59479;51.902;8.212;2024-02-28T08:40:55;101622.44;;;4.43
71630;BMP280;59479;51.902;8.212;2024-02-28T08:44:31;101614.50;;;4.51
71630;BMP280;59479;51.902;8.212;2024-02-28T08:47:05;101620.31;;;4.52
71630;BMP280;59479;51.902;8.212;2024-02-28T08:50:11;101609.75;;;4.57
71630;BMP280;59479;51.902;8.212;2024-02-28T08:53:21;101617.88;;;4.53
71630;BMP280;59479;51.902;8.212;2024-02-28T08:56:06;101625.41;;;4.55
71630;BMP280;59479;51.902;8.212;2024-02-28T08:59:12;101620.53;;;4.57
71630;BMP280;59479;51.902;8.212;2024-02-28T09:06:17;101612.22;;;4.57
71630;BMP280;59479;51.902;8.212;2024-02-28T09:09:39;101621.41;;;4.58
71630;BMP280;59479;51.902;8.212;2024-02-28T09:12:59;101632.28;;;4.60
71630;BMP280;59479;51.902;8.212;2024-02-28T09:16:16;101623.44;;;4.48
71630;BMP280;59479;51.902;8.212;2024-02-28T09:34:40;101631.13;;;4.52
71630;BMP280;59479;51.902;8.212;2024-02-28T09:48:02;101634.13;;;4.65
71630;BMP280;59479;51.902;8.212;2024-02-28T09:50:28;101635.09;;;4.69
71630;BMP280;59479;51.902;8.212;2024-02-28T09:52:54;101640.22;;;4.72
71630;BMP280;59479;51.902;8.212;2024-02-28T09:55:20;101643.72;;;4.77
71630;BMP280;59479;51.902;8.212;2024-02-28T09:57:48;101644.63;;;4.79
71630;BMP280;59479;51.902;8.212;2024-02-28T10:00:14;101644.81;;;4.83
71630;BMP280;59479;51.902;8.212;2024-02-28T10:02:41;101634.25;;;4.89
71630;BMP280;59479;51.902;8.212;2024-02-28T10:05:08;101635.06;;;4.89
71630;BMP280;59479;51.902;8.212;2024-02-28T10:07:33;101633.53;;;4.93
71630;BMP280;59479;51.902;8.212;2024-02-28T10:09:59;101624.28;;;4.89
71630;BMP280;59479;51.902;8.212;2024-02-28T10:12:24;101634.56;;;4.98
71630;BMP280;59479;51.902;8.212;2024-02-28T10:14:50;101636.53;;;5.04
71630;BMP280;59479;51.902;8.212;2024-02-28T10:17:16;101638.34;;;5.08
71630;BMP280;59479;51.902;8.212;2024-02-28T10:19:41;101638.34;;;5.08
71630;BMP280;59479;51.902;8.212;2024-02-28T10:22:07;101627.53;;;5.08
71630;BMP280;59479;51.902;8.212;2024-02-28T10:24:33;101637.56;;;5.11
71630;BMP280;59479;51.902;8.212;2024-02-28T10:27:00;101625.41;;;5.18
71630;BMP280;59479;51.902;8.212;2024-02-28T10:29:26;101630.34;;;5.17
71630;BMP280;59479;51.902;8.212;2024-02-28T10:31:56;101633.63;;;5.16
71630;BMP280;59479;51.902;8.212;2024-02-28T10:34:21;101634.69;;;5.22
71630;BMP280;59479;51.902;8.212;2024-02-28T10:36:47;101640.94;;;5.33
71630;BMP280;59479;51.902;8.212;2024-02-28T10:39:13;101638.22;;;5.27
71630;BMP280;59479;51.902;8.212;2024-02-28T10:41:39;101639.16;;;5.31
71630;BMP280;59479;51.902;8.212;2024-02-28T10:44:04;101646.94;;;5.38
71630;BMP280;59479;51.902;8.212;2024-02-28T10:46:33;101639.22;;;5.32
71630;BMP280;59479;51.902;8.212;2024-02-28T10:48:58;101642.53;;;5.31
71630;BMP280;59479;51.902;8.212;2024-02-28T10:51:24;101650.91;;;5.33
71630;BMP280;59479;51.902;8.212;2024-02-28T10:54:01;101646.94;;;5.38
71630;BMP280;59479;51.902;8.212;2024-02-28T10:56:28;101648.97;;;5.48
71630;BMP280;59479;51.902;8.212;2024-02-28T10:58:57;101649.16;;;5.54
71630;BMP280;59479;51.902;8.212;2024-02-28T11:01:24;101635.97;;;5.56
71630;BMP280;59479;51.902;8.212;2024-02-28T11:03:50;101643.41;;;5.55
71630;BMP280;59479;51.902;8.212;2024-02-28T11:06:21;101643.59;;;5.59
71630;BMP280;59479;51.902;8.212;2024-02-28T11:08:48;101643.59;;;5.61
71630;BMP280;59479;51.902;8.212;2024-02-28T11:11:14;101648.72;;;5.64
71630;BMP280;59479;51.902;8.212;2024-02-28T11:13:51;101645.44;;;5.65
71630;BMP280;59479;51.902;8.212;2024-02-28T11:16:16;101645.50;;;5.66
71630;BMP280;59479;51.902;8.212;2024-02-28T11:18:51;101645.69;;;5.72
71630;BMP280;59479;51.902;8.212;2024-02-28T11:21:16;101646.66;;;5.76
71630;BMP280;59479;51.902;8.212;2024-02-28T11:23:45;101645.78;;;5.74
71630;BMP280;59479;51.902;8.212;2024-02-28T11:26:12;101649.34;;;5.80
71630;BMP280;59479;51.902;8.212;2024-02-28T11:28:38;101642.88;;;5.85
71630;BMP280;59479;51.902;8.212;2024-02-28T11:31:03;101641.31;;;5.88
71630;BMP280;59479;51.902;8.212;2024-02-28T11:33:29;101643.97;;;5.93
71630;BMP280;59479;51.902;8.212;2024-02-28T11:35:57;101634.91;;;5.95
71630;BMP280;59479;51.902;8.212;2024-02-28T11:38:26;101642.22;;;5.90
71630;BMP280;59479;51.902;8.212;2024-02-28T11:40:53;101640.53;;;5.89
71630;BMP280;59479;51.902;8.212;2024-02-28T11:43:19;101639.59;;;5.87
71630;BMP280;59479;51.902;8.212;2024-02-28T11:45:44;101639.22;;;6.00
71630;BMP280;59479;51.902;8.212;2024-02-28T11:48:13;101626.03;;;6.03
71630;BMP280;59479;51.902;8.212;2024-02-28T11:50:39;101626.09;;;6.06
71630;BMP280;59479;51.902;8.212;2024-02-28T11:53:05;101626.25;;;6.10
71630;BMP280;59479;51.902;8.212;2024-02-28T11:55:31;101629.66;;;6.12
71630;BMP280;59479;51.902;8.212;2024-02-28T11:57:57;101627.16;;;6.12
71630;BMP280;59479;51.902;8.212;2024-02-28T12:00:22;101621.50;;;6.16
71630;BMP280;59479;51.902;8.212;2024-02-28T12:02:48;101624.22;;;6.24
71630;BMP280;59479;51.902;8.212;2024-02-28T12:05:13;101616.84;;;6.27
71630;BMP280;59479;51.902;8.212;2024-02-28T12:07:39;101613.25;;;6.19
71630;BMP280;59479;51.902;8.212;2024-02-28T12:10:04;101614.41;;;6.28
71630;BMP280;59479;51.902;8.212;2024-02-28T12:12:31;101618.84;;;6.36
71630;BMP280;59479;51.902;8.212;2024-02-28T12:15:00;101615.63;;;6.40
71630;BMP280;59479;51.902;8.212;2024-02-28T12:17:26;101619.78;;;6.40
71630;BMP280;59479;51.902;8.212;2024-02-28T12:19:52;101617.34;;;6.41
71630;BMP280;59479;51.902;8.212;2024-02-28T12:22:18;101605.75;;;6.43
71630;BMP280;59479;51.902;8.212;2024-02-28T12:24:43;101596.06;;;6.54
71630;BMP280;59479;51.902;8.212;2024-02-28T12:27:08;101596.06;;;6.54
71630;BMP280;59479;51.902;8.212;2024-02-28T12:29:34;101590.97;;;6.51
71630;BMP280;59479;51.902;8.212;2024-02-28T12:31:59;101588.94;;;6.64
71630;BMP280;59479;51.902;8.212;2024-02-28T12:34:25;101587.50;;;6.72
71630;BMP280;59479;51.902;8.212;2024-02-28T12:36:50;101579.25;;;6.74
71630;BMP280;59479;51.902;8.212;2024-02-28T12:39:15;101579.34;;;6.77
71630;BMP280;59479;51.902;8.212;2024-02-28T12:41:41;101569.63;;;6.86
71630;BMP280;59479;51.902;8.212;2024-02-28T12:44:06;101566.59;;;6.96
71630;BMP280;59479;51.902;8.212;2024-02-28T12:46:33;101571.59;;;6.96
71630;BMP280;59479;51.902;8.212;2024-02-28T12:48:59;101566.63;;;6.98
71630;BMP280;59479;51.902;8.212;2024-02-28T12:51:40;101548.59;;;7.08
71630;BMP280;59479;51.902;8.212;2024-02-28T12:54:07;101553.75;;;7.13
71630;BMP280;59479;51.902;8.212;2024-02-28T12:56:34;101552.09;;;7.14
71630;BMP280;59479;51.902;8.212;2024-02-28T12:59:00;101550.56;;;7.17
71630;BMP280;59479;51.902;8.212;2024-02-28T13:01:26;101554.09;;;7.25
71630;BMP280;59479;51.902;8.212;2024-02-28T13:03:51;101542.53;;;7.29
71630;BMP280;59479;51.902;8.212;2024-02-28T13:06:17;101546.91;;;7.37
71630;BMP280;59479;51.902;8.212;2024-02-28T13:08:43;101542.88;;;7.42
71630;BMP280;59479;51.902;8.212;2024-02-28T13:11:09;101532.28;;;7.51
71630;BMP280;59479;51.902;8.212;2024-02-28T13:13:35;101536.91;;;7.36
71630;BMP280;59479;51.902;8.212;2024-02-28T13:16:00;101543.44;;;7.31
71630;BMP280;59479;51.902;8.212;2024-02-28T13:18:25;101525.47;;;7.45
71630;BMP280;59479;51.902;8.212;2024-02-28T13:20:51;101530.69;;;7.53
71630;BMP280;59479;51.902;8.212;2024-02-28T13:23:17;101526.06;;;7.37
71630;BMP280;59479;51.902;8.212;2024-02-28T13:25:44;101527.03;;;7.11
71630;BMP280;59479;51.902;8.212;2024-02-28T13:28:09;101536.63;;;7.27
71630;BMP280;59479;51.902;8.212;2024-02-28T13:30:34;101521.31;;;7.46
71630;BMP280;59479;51.902;8.212;2024-02-28T13:33:02;101523.22;;;7.55
71630;BMP280;59479;51.902;8.212;2024-02-28T13:35:27;101519.31;;;7.65
71630;BMP280;59479;51.902;8.212;2024-02-28T13:37:53;101524.59;;;7.75
71630;BMP280;59479;51.902;8.212;2024-02-28T13:40:19;101523.56;;;7.67
71630;BMP280;59479;51.902;8.212;2024-02-28T13:42:45;101519.75;;;7.81
71630;BMP280;59479;51.902;8.212;2024-02-28T13:45:10;101506.50;;;7.85
71630;BMP280;59479;51.902;8.212;2024-02-28T13:47:37;101504.31;;;7.98
71630;BMP280;59479;51.902;8.212;2024-02-28T13:50:02;101503.69;;;8.07
71630;BMP280;59479;51.902;8.212;2024-02-28T13:52:28;101500.38;;;8.08
71630;BMP280;59479;51.902;8.212;2024-02-28T13:54:54;101499.00;;;8.19
71630;BMP280;59479;51.902;8.212;2024-02-28T13:57:19;101491.53;;;8.20
71630;BMP280;59479;51.902;8.212;2024-02-28T13:59:45;101490.06;;;8.28
71630;BMP280;59479;51.902;8.212;2024-02-28T14:02:14;101490.09;;;8.30
71630;BMP280;59479;51.902;8.212;2024-02-28T14:04:40;101476.09;;;8.38
71630;BMP280;59479;51.902;8.212;2024-02-28T14:07:08;101478.75;;;8.45
71630;BMP280;59479;51.902;8.212;2024-02-28T14:09:33;101474.72;;;8.51
71630;BMP280;59479;51.902;8.212;2024-02-28T14:11:58;101479.03;;;8.58
71630;BMP280;59479;51.902;8.212;2024-02-28T14:14:24;101480.00;;;8.65
71630;BMP280;59479;51.902;8.212;2024-02-28T14:16:49;101474.22;;;8.69
71630;BMP280;59479;51.902;8.212;2024-02-28T14:19:14;101482.56;;;8.66
71630;BMP280;59479;51.902;8.212;2024-02-28T14:21:40;101483.34;;;8.65
71630;BMP280;59479;51.902;8.212;2024-02-28T14:24:05;101485.19;;;8.74
71630;BMP280;59479;51.902;8.212;2024-02-28T14:26:31;101483.53;;;8.73
71630;BMP280;59479;51.902;8.212;2024-02-28T14:28:56;101477.66;;;8.72
71630;BMP280;59479;51.902;8.212;2024-02-28T14:31:22;101471.13;;;8.80
71630;BMP280;59479;51.902;8.212;2024-02-28T14:33:47;101473.72;;;8.83
71630;BMP280;59479;51.902;8.212;2024-02-28T14:36:13;101472.16;;;8.88
71630;BMP280;59479;51.902;8.212;2024-02-28T14:38:39;101471.41;;;8.93
71630;BMP280;59479;51.902;8.212;2024-02-28T14:41:04;101469.75;;;8.92
71630;BMP280;59479;51.902;8.212;2024-02-28T14:43:30;101476.47;;;8.95